sensor_id;sensor_type;location;lat;lon;timestamp;P1;durP1;ratioP1;P2;durP2;ratioP2
41885;SDS011;27567;43.084;25.616;2023-02-01T00:00:32;9.40;;;4.55;;
41885;SDS011;27567;43.084;25.616;2023-02-01T00:03:17;7.65;;;3.55;;
41885;SDS011;27567;43.084;25.616;2023-02-01T00:06:02;8.35;;;3.80;;
41885;SDS011;27567;43.084;25.616;2023-02-01T00:08:46;7.32;;;3.53;;
41885;SDS011;27567;43.084;25.616;2023-02-01T00:11:30;8.73;;;3.65;;
41885;SDS011;27567;43.084;25.616;2023-02-01T00:14:14;5.53;;;3.65;;
41885;SDS011;27567;43.084;25.616;2023-02-01T00:16:58;4.57;;;2.97;;
41885;SDS011;27567;43.084;25.616;2023-02-01T00:19:42;5.50;;;3.38;;
41885;SDS011;27567;43.084;25.616;2023-02-01T00:22:26;7.95;;;3.33;;
41885;SDS011;27567;43.084;25.616;2023-02-01T00:25:10;6.22;;;3.60;;
41885;SDS011;27567;43.084;25.616;2023-02-01T00:27:53;5.00;;;3.05;;
41885;SDS011;27567;43.084;25.616;2023-02-01T00:30:38;6.63;;;3.40;;
41885;SDS011;27567;43.084;25.616;2023-02-01T00:33:22;5.38;;;3.00;;
41885;SDS011;27567;43.084;25.616;2023-02-01T00:36:07;6.25;;;3.10;;
41885;SDS011;27567;43.084;25.616;2023-02-01T00:38:51;7.22;;;3.15;;
41885;SDS011;27567;43.084;25.616;2023-02-01T00:41:34;6.63;;;3.40;;
41885;SDS011;27567;43.084;25.616;2023-02-01T00:44:18;8.25;;;4.32;;
41885;SDS011;27567;43.084;25.616;2023-02-01T00:47:02;6.40;;;2.60;;
41885;SDS011;27567;43.084;25.616;2023-02-01T00:49:46;5.90;;;3.13;;
41885;SDS011;27567;43.084;25.616;2023-02-01T00:52:30;5.35;;;2.88;;
41885;SDS011;27567;43.084;25.616;2023-02-01T00:55:14;6.43;;;2.80;;
41885;SDS011;27567;43.084;25.616;2023-02-01T00:57:58;5.07;;;2.83;;
41885;SDS011;27567;43.084;25.616;2023-02-01T01:00:42;6.93;;;3.72;;
41885;SDS011;27567;43.084;25.616;2023-02-01T01:03:26;9.80;;;3.25;;
41885;SDS011;27567;43.084;25.616;2023-02-01T01:06:11;5.82;;;2.90;;
41885;SDS011;27567;43.084;25.616;2023-02-01T01:08:56;5.45;;;2.65;;
41885;SDS011;27567;43.084;25.616;2023-02-01T01:11:40;7.50;;;3.22;;
41885;SDS011;27567;43.084;25.616;2023-02-01T01:14:24;7.07;;;2.65;;
41885;SDS011;27567;43.084;25.616;2023-02-01T01:17:08;6.57;;;3.00;;
41885;SDS011;27567;43.084;25.616;2023-02-01T01:19:52;5.80;;;3.28;;
41885;SDS011;27567;43.084;25.616;2023-02-01T01:22:36;6.03;;;3.15;;
41885;SDS011;27567;43.084;25.616;2023-02-01T01:25:20;5.45;;;2.83;;
41885;SDS011;27567;43.084;25.616;2023-02-01T01:28:05;4.93;;;2.63;;
41885;SDS011;27567;43.084;25.616;2023-02-01T01:30:49;6.85;;;2.97;;
41885;SDS011;27567;43.084;25.616;2023-02-01T01:33:32;6.78;;;2.65;;
41885;SDS011;27567;43.084;25.616;2023-02-01T01:36:16;8.25;;;3.17;;
41885;SDS011;27567;43.084;25.616;2023-02-01T01:39:01;4.20;;;2.50;;
41885;SDS011;27567;43.084;25.616;2023-02-01T01:41:44;8.68;;;3.33;;
41885;SDS011;27567;43.084;25.616;2023-02-01T01:47:37;5.68;;;2.70;;
41885;SDS011;27567;43.084;25.616;2023-02-01T01:50:23;8.13;;;3.42;;
41885;SDS011;27567;43.084;25.616;2023-02-01T01:53:08;4.25;;;2.50;;
41885;SDS011;27567;43.084;25.616;2023-02-01T01:55:52;4.25;;;2.83;;
41885;SDS011;27567;43.084;25.616;2023-02-01T01:58:37;6.47;;;2.88;;
41885;SDS011;27567;43.084;25.616;2023-02-01T02:01:21;5.85;;;2.58;;
41885;SDS011;27567;43.084;25.616;2023-02-01T02:04:05;5.30;;;2.60;;
41885;SDS011;27567;43.084;25.616;2023-02-01T02:09:36;4.97;;;2.85;;
41885;SDS011;27567;43.084;25.616;2023-02-01T02:12:21;7.45;;;2.60;;
41885;SDS011;27567;43.084;25.616;2023-02-01T02:15:05;7.75;;;2.70;;
41885;SDS011;27567;43.084;25.616;2023-02-01T02:18:05;7.53;;;3.08;;
41885;SDS011;27567;43.084;25.616;2023-02-01T02:20:58;7.60;;;2.78;;
41885;SDS011;27567;43.084;25.616;2023-02-01T02:26:39;8.75;;;2.75;;
41885;SDS011;27567;43.084;25.616;2023-02-01T02:35:13;3.30;;;2.40;;
41885;SDS011;27567;43.084;25.616;2023-02-01T02:38:02;9.85;;;2.60;;
41885;SDS011;27567;43.084;25.616;2023-02-01T02:40:50;5.72;;;2.17;;
41885;SDS011;27567;43.084;25.616;2023-02-01T02:43:37;5.60;;;2.42;;
41885;SDS011;27567;43.084;25.616;2023-02-01T02:46:46;10.05;;;2.95;;
41885;SDS011;27567;43.084;25.616;2023-02-01T02:49:59;9.35;;;3.55;;
41885;SDS011;27567;43.084;25.616;2023-02-01T02:53:07;6.90;;;2.45;;
41885;SDS011;27567;43.084;25.616;2023-02-01T02:56:12;10.45;;;3.13;;
41885;SDS011;27567;43.084;25.616;2023-02-01T02:59:17;7.60;;;2.63;;
41885;SDS011;27567;43.084;25.616;2023-02-01T03:02:22;9.13;;;2.92;;
41885;SDS011;27567;43.084;25.616;2023-02-01T03:05:25;6.68;;;2.30;;
41885;SDS011;27567;43.084;25.616;2023-02-01T03:10:58;7.18;;;2.30;;
41885;SDS011;27567;43.084;25.616;2023-02-01T03:22:03;10.82;;;2.65;;
41885;SDS011;27567;43.084;25.616;2023-02-01T03:24:53;6.05;;;2.40;;
41885;SDS011;27567;43.084;25.616;2023-02-01T03:30:38;10.65;;;3.72;;
41885;SDS011;27567;43.084;25.616;2023-02-01T03:33:24;8.30;;;2.47;;
41885;SDS011;27567;43.084;25.616;2023-02-01T03:41:51;9.48;;;3.00;;
41885;SDS011;27567;43.084;25.616;2023-02-01T03:44:38;4.70;;;2.60;;
41885;SDS011;27567;43.084;25.616;2023-02-01T03:47:25;5.88;;;2.70;;
41885;SDS011;27567;43.084;25.616;2023-02-01T03:50:11;4.25;;;2.15;;
41885;SDS011;27567;43.084;25.616;2023-02-01T03:53:13;8.23;;;3.10;;
41885;SDS011;27567;43.084;25.616;2023-02-01T03:55:58;6.50;;;2.75;;
41885;SDS011;27567;43.084;25.616;2023-02-01T03:58:42;7.47;;;3.00;;
41885;SDS011;27567;43.084;25.616;2023-02-01T04:01:41;7.43;;;2.47;;
41885;SDS011;27567;43.084;25.616;2023-02-01T04:04:25;4.93;;;2.80;;
41885;SDS011;27567;43.084;25.616;2023-02-01T04:07:09;9.48;;;2.70;;
41885;SDS011;27567;43.084;25.616;2023-02-01T04:09:53;9.57;;;3.28;;
41885;SDS011;27567;43.084;25.616;2023-02-01T04:12:37;6.25;;;2.28;;
41885;SDS011;27567;43.084;25.616;2023-02-01T04:15:21;4.10;;;2.28;;
41885;SDS011;27567;43.084;25.616;2023-02-01T04:18:05;11.73;;;2.33;;
41885;SDS011;27567;43.084;25.616;2023-02-01T04:20:49;5.80;;;2.63;;
41885;SDS011;27567;43.084;25.616;2023-02-01T04:23:33;5.25;;;2.50;;
41885;SDS011;27567;43.084;25.616;2023-02-01T04:26:16;12.13;;;3.13;;
41885;SDS011;27567;43.084;25.616;2023-02-01T04:29:00;4.93;;;2.65;;
41885;SDS011;27567;43.084;25.616;2023-02-01T04:31:44;6.20;;;3.75;;
41885;SDS011;27567;43.084;25.616;2023-02-01T04:34:29;6.07;;;2.28;;
41885;SDS011;27567;43.084;25.616;2023-02-01T04:37:13;7.15;;;2.95;;
41885;SDS011;27567;43.084;25.616;2023-02-01T04:39:57;6.97;;;2.58;;
41885;SDS011;27567;43.084;25.616;2023-02-01T04:42:41;5.60;;;2.50;;
41885;SDS011;27567;43.084;25.616;2023-02-01T04:45:26;6.30;;;2.25;;
41885;SDS011;27567;43.084;25.616;2023-02-01T04:48:10;6.32;;;2.70;;
41885;SDS011;27567;43.084;25.616;2023-02-01T04:50:54;5.35;;;2.67;;
41885;SDS011;27567;43.084;25.616;2023-02-01T04:53:38;5.85;;;3.08;;
41885;SDS011;27567;43.084;25.616;2023-02-01T04:56:22;3.95;;;2.78;;
41885;SDS011;27567;43.084;25.616;2023-02-01T04:59:06;7.07;;;3.67;;
41885;SDS011;27567;43.084;25.616;2023-02-01T05:01:49;4.60;;;2.70;;
41885;SDS011;27567;43.084;25.616;2023-02-01T05:04:33;4.72;;;2.80;;
41885;SDS011;27567;43.084;25.616;2023-02-01T05:07:17;3.75;;;2.35;;
41885;SDS011;27567;43.084;25.616;2023-02-01T05:10:01;4.95;;;2.60;;
41885;SDS011;27567;43.084;25.616;2023-02-01T05:12:45;8.15;;;3.05;;
41885;SDS011;27567;43.084;25.616;2023-02-01T05:15:50;5.03;;;3.50;;
41885;SDS011;27567;43.084;25.616;2023-02-01T05:18:33;6.60;;;3.13;;
41885;SDS011;27567;43.084;25.616;2023-02-01T05:21:17;8.15;;;3.28;;
41885;SDS011;27567;43.084;25.616;2023-02-01T05:24:01;8.80;;;3.50;;
41885;SDS011;27567;43.084;25.616;2023-02-01T05:26:57;5.50;;;3.17;;
41885;SDS011;27567;43.084;25.616;2023-02-01T05:29:41;13.23;;;3.42;;
41885;SDS011;27567;43.084;25.616;2023-02-01T05:32:25;5.65;;;3.20;;
41885;SDS011;27567;43.084;25.616;2023-02-01T05:35:09;7.10;;;3.88;;
41885;SDS011;27567;43.084;25.616;2023-02-01T05:37:54;6.97;;;4.00;;
41885;SDS011;27567;43.084;25.616;2023-02-01T05:40:37;7.00;;;3.63;;
41885;SDS011;27567;43.084;25.616;2023-02-01T05:43:22;6.68;;;3.47;;
41885;SDS011;27567;43.084;25.616;2023-02-01T05:46:06;6.80;;;3.47;;
41885;SDS011;27567;43.084;25.616;2023-02-01T05:48:50;7.15;;;3.80;;
41885;SDS011;27567;43.084;25.616;2023-02-01T05:51:34;6.43;;;3.42;;
41885;SDS011;27567;43.084;25.616;2023-02-01T05:54:17;7.82;;;3.33;;
41885;SDS011;27567;43.084;25.616;2023-02-01T05:57:01;7.05;;;3.70;;
41885;SDS011;27567;43.084;25.616;2023-02-01T05:59:45;5.85;;;3.53;;
41885;SDS011;27567;43.084;25.616;2023-02-01T06:02:29;6.95;;;3.15;;
41885;SDS011;27567;43.084;25.616;2023-02-01T06:05:13;9.38;;;3.15;;
41885;SDS011;27567;43.084;25.616;2023-02-01T06:07:57;9.27;;;3.63;;
41885;SDS011;27567;43.084;25.616;2023-02-01T06:10:41;10.40;;;3.70;;
41885;SDS011;27567;43.084;25.616;2023-02-01T06:13:25;8.88;;;4.00;;
41885;SDS011;27567;43.084;25.616;2023-02-01T06:16:09;5.78;;;3.05;;
41885;SDS011;27567;43.084;25.616;2023-02-01T06:18:53;6.63;;;3.80;;
41885;SDS011;27567;43.084;25.616;2023-02-01T06:21:37;6.00;;;2.85;;
41885;SDS011;27567;43.084;25.616;2023-02-01T06:24:21;4.00;;;2.55;;
41885;SDS011;27567;43.084;25.616;2023-02-01T06:27:05;4.45;;;2.63;;
41885;SDS011;27567;43.084;25.616;2023-02-01T06:29:50;10.10;;;3.40;;
41885;SDS011;27567;43.084;25.616;2023-02-01T06:32:34;9.52;;;3.50;;
41885;SDS011;27567;43.084;25.616;2023-02-01T06:35:18;6.22;;;3.47;;
41885;SDS011;27567;43.084;25.616;2023-02-01T06:38:02;10.05;;;3.60;;
41885;SDS011;27567;43.084;25.616;2023-02-01T06:40:46;7.55;;;3.63;;
41885;SDS011;27567;43.084;25.616;2023-02-01T06:43:35;7.68;;;4.38;;
41885;SDS011;27567;43.084;25.616;2023-02-01T06:46:20;10.57;;;3.28;;
41885;SDS011;27567;43.084;25.616;2023-02-01T06:49:05;8.52;;;3.22;;
41885;SDS011;27567;43.084;25.616;2023-02-01T06:51:48;5.30;;;3.45;;
41885;SDS011;27567;43.084;25.616;2023-02-01T06:54:32;9.68;;;3.95;;
41885;SDS011;27567;43.084;25.616;2023-02-01T06:57:17;7.50;;;3.08;;
41885;SDS011;27567;43.084;25.616;2023-02-01T07:00:02;6.63;;;3.63;;
41885;SDS011;27567;43.084;25.616;2023-02-01T07:02:46;4.40;;;2.55;;
41885;SDS011;27567;43.084;25.616;2023-02-01T07:05:30;6.03;;;2.95;;
41885;SDS011;27567;43.084;25.616;2023-02-01T07:08:14;4.03;;;2.30;;
41885;SDS011;27567;43.084;25.616;2023-02-01T07:11:05;7.18;;;2.20;;
41885;SDS011;27567;43.084;25.616;2023-02-01T07:13:50;7.97;;;2.55;;
41885;SDS011;27567;43.084;25.616;2023-02-01T07:16:34;7.32;;;2.20;;
41885;SDS011;27567;43.084;25.616;2023-02-01T07:19:17;8.50;;;2.75;;
41885;SDS011;27567;43.084;25.616;2023-02-01T07:22:01;4.57;;;2.35;;
41885;SDS011;27567;43.084;25.616;2023-02-01T07:24:45;6.93;;;2.85;;
41885;SDS011;27567;43.084;25.616;2023-02-01T07:27:29;3.53;;;2.10;;
41885;SDS011;27567;43.084;25.616;2023-02-01T07:30:13;4.70;;;2.65;;
41885;SDS011;27567;43.084;25.616;2023-02-01T07:32:57;7.90;;;2.50;;
41885;SDS011;27567;43.084;25.616;2023-02-01T07:35:45;3.88;;;2.30;;
41885;SDS011;27567;43.084;25.616;2023-02-01T07:38:29;6.07;;;2.78;;
41885;SDS011;27567;43.084;25.616;2023-02-01T07:41:12;5.15;;;2.03;;
41885;SDS011;27567;43.084;25.616;2023-02-01T07:43:56;4.45;;;2.30;;
41885;SDS011;27567;43.084;25.616;2023-02-01T07:46:40;3.90;;;2.28;;
41885;SDS011;27567;43.084;25.616;2023-02-01T07:49:24;5.22;;;2.17;;
41885;SDS011;27567;43.084;25.616;2023-02-01T07:52:09;4.97;;;2.33;;
41885;SDS011;27567;43.084;25.616;2023-02-01T07:54:54;5.43;;;2.20;;
41885;SDS011;27567;43.084;25.616;2023-02-01T07:57:38;4.43;;;2.20;;
41885;SDS011;27567;43.084;25.616;2023-02-01T08:00:22;5.45;;;2.58;;
41885;SDS011;27567;43.084;25.616;2023-02-01T08:03:25;7.30;;;2.70;;
41885;SDS011;27567;43.084;25.616;2023-02-01T08:06:09;6.35;;;2.20;;
41885;SDS011;27567;43.084;25.616;2023-02-01T08:08:53;5.13;;;2.85;;
41885;SDS011;27567;43.084;25.616;2023-02-01T08:11:37;4.45;;;2.45;;
41885;SDS011;27567;43.084;25.616;2023-02-01T08:14:21;3.92;;;2.08;;
41885;SDS011;27567;43.084;25.616;2023-02-01T08:17:05;4.88;;;1.67;;
41885;SDS011;27567;43.084;25.616;2023-02-01T08:19:49;7.82;;;3.30;;
41885;SDS011;27567;43.084;25.616;2023-02-01T08:22:33;7.07;;;2.85;;
41885;SDS011;27567;43.084;25.616;2023-02-01T08:25:17;9.43;;;4.00;;
41885;SDS011;27567;43.084;25.616;2023-02-01T08:28:01;8.32;;;2.72;;
41885;SDS011;27567;43.084;25.616;2023-02-01T08:30:45;12.57;;;4.03;;
41885;SDS011;27567;43.084;25.616;2023-02-01T08:33:29;18.17;;;5.75;;
41885;SDS011;27567;43.084;25.616;2023-02-01T08:36:14;6.82;;;2.50;;
41885;SDS011;27567;43.084;25.616;2023-02-01T08:38:57;7.25;;;3.17;;
41885;SDS011;27567;43.084;25.616;2023-02-01T08:41:41;10.05;;;2.40;;
41885;SDS011;27567;43.084;25.616;2023-02-01T08:44:45;26.23;;;7.70;;
41885;SDS011;27567;43.084;25.616;2023-02-01T08:47:30;15.18;;;5.85;;
41885;SDS011;27567;43.084;25.616;2023-02-01T08:50:14;39.22;;;11.98;;
41885;SDS011;27567;43.084;25.616;2023-02-01T08:52:59;4.40;;;2.40;;
41885;SDS011;27567;43.084;25.616;2023-02-01T08:55:42;28.67;;;8.18;;
41885;SDS011;27567;43.084;25.616;2023-02-01T08:58:26;4.82;;;1.80;;
41885;SDS011;27567;43.084;25.616;2023-02-01T09:01:13;10.98;;;2.78;;
41885;SDS011;27567;43.084;25.616;2023-02-01T09:03:57;6.20;;;2.47;;
41885;SDS011;27567;43.084;25.616;2023-02-01T09:06:41;4.80;;;2.55;;
41885;SDS011;27567;43.084;25.616;2023-02-01T09:09:26;16.35;;;5.65;;
41885;SDS011;27567;43.084;25.616;2023-02-01T09:12:11;5.43;;;2.67;;
41885;SDS011;27567;43.084;25.616;2023-02-01T09:14:55;5.20;;;2.22;;
41885;SDS011;27567;43.084;25.616;2023-02-01T09:17:39;6.13;;;2.47;;
41885;SDS011;27567;43.084;25.616;2023-02-01T09:20:25;3.78;;;1.63;;
41885;SDS011;27567;43.084;25.616;2023-02-01T09:23:09;7.35;;;2.70;;
41885;SDS011;27567;43.084;25.616;2023-02-01T09:25:53;3.25;;;1.88;;
41885;SDS011;27567;43.084;25.616;2023-02-01T09:28:37;3.15;;;1.80;;
41885;SDS011;27567;43.084;25.616;2023-02-01T09:31:21;4.07;;;2.00;;
41885;SDS011;27567;43.084;25.616;2023-02-01T09:34:05;7.60;;;2.80;;
41885;SDS011;27567;43.084;25.616;2023-02-01T09:36:49;6.05;;;1.80;;
41885;SDS011;27567;43.084;25.616;2023-02-01T09:39:33;11.98;;;3.13;;
41885;SDS011;27567;43.084;25.616;2023-02-01T09:42:27;3.65;;;1.55;;
41885;SDS011;27567;43.084;25.616;2023-02-01T09:48:19;4.00;;;1.88;;
41885;SDS011;27567;43.084;25.616;2023-02-01T09:51:06;4.85;;;1.55;;
41885;SDS011;27567;43.084;25.616;2023-02-01T09:54:04;3.42;;;1.58;;
41885;SDS011;27567;43.084;25.616;2023-02-01T09:59:43;5.53;;;1.83;;
41885;SDS011;27567;43.084;25.616;2023-02-01T10:02:28;4.47;;;1.95;;
41885;SDS011;27567;43.084;25.616;2023-02-01T10:05:15;7.18;;;2.15;;
41885;SDS011;27567;43.084;25.616;2023-02-01T10:08:12;7.38;;;1.98;;
41885;SDS011;27567;43.084;25.616;2023-02-01T10:11:13;6.28;;;1.50;;
41885;SDS011;27567;43.084;25.616;2023-02-01T10:17:27;5.88;;;2.40;;
41885;SDS011;27567;43.084;25.616;2023-02-01T10:23:05;3.50;;;1.10;;
41885;SDS011;27567;43.084;25.616;2023-02-01T10:25:54;1.75;;;0.80;;
41885;SDS011;27567;43.084;25.616;2023-02-01T10:28:38;4.88;;;1.20;;
41885;SDS011;27567;43.084;25.616;2023-02-01T10:31:24;6.03;;;1.75;;
41885;SDS011;27567;43.084;25.616;2023-02-01T10:34:20;3.17;;;1.30;;
41885;SDS011;27567;43.084;25.616;2023-02-01T10:39:53;2.83;;;1.10;;
41885;SDS011;27567;43.084;25.616;2023-02-01T10:42:37;3.00;;;0.98;;
41885;SDS011;27567;43.084;25.616;2023-02-01T10:45:24;2.83;;;1.30;;
41885;SDS011;27567;43.084;25.616;2023-02-01T10:48:09;6.65;;;2.65;;
41885;SDS011;27567;43.084;25.616;2023-02-01T10:51:00;2.40;;;1.02;;
41885;SDS011;27567;43.084;25.616;2023-02-01T10:53:53;9.23;;;1.75;;
41885;SDS011;27567;43.084;25.616;2023-02-01T10:56:39;2.75;;;1.30;;
41885;SDS011;27567;43.084;25.616;2023-02-01T10:59:27;4.13;;;1.20;;
41885;SDS011;27567;43.084;25.616;2023-02-01T11:02:31;3.60;;;1.20;;
41885;SDS011;27567;43.084;25.616;2023-02-01T11:05:15;5.63;;;1.63;;
41885;SDS011;27567;43.084;25.616;2023-02-01T11:08:00;2.47;;;1.83;;
41885;SDS011;27567;43.084;25.616;2023-02-01T11:10:43;16.27;;;4.70;;
41885;SDS011;27567;43.084;25.616;2023-02-01T11:13:29;15.55;;;5.00;;
41885;SDS011;27567;43.084;25.616;2023-02-01T11:16:13;5.85;;;2.25;;
41885;SDS011;27567;43.084;25.616;2023-02-01T11:19:01;4.68;;;2.10;;
41885;SDS011;27567;43.084;25.616;2023-02-01T11:21:48;9.48;;;3.70;;
41885;SDS011;27567;43.084;25.616;2023-02-01T11:24:33;9.90;;;3.05;;
41885;SDS011;27567;43.084;25.616;2023-02-01T11:27:20;4.25;;;2.45;;
41885;SDS011;27567;43.084;25.616;2023-02-01T11:30:05;5.93;;;1.95;;
41885;SDS011;27567;43.084;25.616;2023-02-01T11:32:49;3.17;;;1.20;;
41885;SDS011;27567;43.084;25.616;2023-02-01T11:35:34;3.90;;;1.30;;
41885;SDS011;27567;43.084;25.616;2023-02-01T11:38:22;2.65;;;1.20;;
41885;SDS011;27567;43.084;25.616;2023-02-01T11:41:21;3.53;;;1.40;;
41885;SDS011;27567;43.084;25.616;2023-02-01T11:44:15;3.75;;;1.48;;
41885;SDS011;27567;43.084;25.616;2023-02-01T11:47:20;2.20;;;1.25;;
41885;SDS011;27567;43.084;25.616;2023-02-01T11:50:11;3.00;;;1.20;;
41885;SDS011;27567;43.084;25.616;2023-02-01T11:53:33;2.65;;;1.10;;
41885;SDS011;27567;43.084;25.616;2023-02-01T12:19:17;5.43;;;1.25;;
41885;SDS011;27567;43.084;25.616;2023-02-01T12:36:12;2.35;;;0.80;;
41885;SDS011;27567;43.084;25.616;2023-02-01T12:39:02;2.90;;;1.05;;
41885;SDS011;27567;43.084;25.616;2023-02-01T12:41:52;1.92;;;0.80;;
41885;SDS011;27567;43.084;25.616;2023-02-01T12:47:35;1.83;;;1.23;;
41885;SDS011;27567;43.084;25.616;2023-02-01T12:50:28;2.50;;;1.30;;
41885;SDS011;27567;43.084;25.616;2023-02-01T12:56:06;3.63;;;1.20;;
41885;SDS011;27567;43.084;25.616;2023-02-01T12:58:54;2.40;;;1.40;;
41885;SDS011;27567;43.084;25.616;2023-02-01T13:02:01;2.80;;;0.70;;
41885;SDS011;27567;43.084;25.616;2023-02-01T13:04:52;1.90;;;0.80;;
41885;SDS011;27567;43.084;25.616;2023-02-01T13:07:39;2.22;;;0.85;;
41885;SDS011;27567;43.084;25.616;2023-02-01T13:19:13;1.77;;;0.82;;
41885;SDS011;27567;43.084;25.616;2023-02-01T13:22:00;3.25;;;1.40;;
41885;SDS011;27567;43.084;25.616;2023-02-01T13:24:52;2.22;;;0.85;;
41885;SDS011;27567;43.084;25.616;2023-02-01T13:27:37;3.42;;;1.85;;
41885;SDS011;27567;43.084;25.616;2023-02-01T13:30:23;3.05;;;1.25;;
41885;SDS011;27567;43.084;25.616;2023-02-01T13:42:01;2.08;;;0.95;;
41885;SDS011;27567;43.084;25.616;2023-02-01T13:44:56;3.15;;;1.30;;
41885;SDS011;27567;43.084;25.616;2023-02-01T13:47:42;2.75;;;1.40;;
41885;SDS011;27567;43.084;25.616;2023-02-01T13:55:55;4.88;;;1.25;;
41885;SDS011;27567;43.084;25.616;2023-02-01T13:58:41;3.85;;;1.17;;
41885;SDS011;27567;43.084;25.616;2023-02-01T14:04:44;4.03;;;1.15;;
41885;SDS011;27567;43.084;25.616;2023-02-01T14:07:21;3.50;;;1.10;;
41885;SDS011;27567;43.084;25.616;2023-02-01T14:16:13;5.78;;;1.45;;
41885;SDS011;27567;43.084;25.616;2023-02-01T14:18:58;2.88;;;1.00;;
41885;SDS011;27567;43.084;25.616;2023-02-01T14:21:50;2.78;;;1.13;;
41885;SDS011;27567;43.084;25.616;2023-02-01T14:24:42;3.35;;;1.48;;
41885;SDS011;27567;43.084;25.616;2023-02-01T14:27:35;2.13;;;1.05;;
41885;SDS011;27567;43.084;25.616;2023-02-01T14:30:20;1.58;;;1.00;;
41885;SDS011;27567;43.084;25.616;2023-02-01T14:36:20;5.47;;;0.95;;
41885;SDS011;27567;43.084;25.616;2023-02-01T14:39:04;4.15;;;1.20;;
41885;SDS011;27567;43.084;25.616;2023-02-01T14:41:48;2.30;;;1.00;;
41885;SDS011;27567;43.084;25.616;2023-02-01T14:44:36;5.13;;;2.30;;
41885;SDS011;27567;43.084;25.616;2023-02-01T15:06:51;1.58;;;0.90;;
41885;SDS011;27567;43.084;25.616;2023-02-01T15:15:18;4.20;;;1.08;;
41885;SDS011;27567;43.084;25.616;2023-02-01T15:18:02;2.97;;;1.23;;
41885;SDS011;27567;43.084;25.616;2023-02-01T15:20:55;3.38;;;1.27;;
41885;SDS011;27567;43.084;25.616;2023-02-01T15:23:40;3.55;;;1.33;;
41885;SDS011;27567;43.084;25.616;2023-02-01T15:26:25;4.20;;;1.13;;
41885;SDS011;27567;43.084;25.616;2023-02-01T15:29:10;2.83;;;0.90;;
41885;SDS011;27567;43.084;25.616;2023-02-01T15:31:54;5.57;;;1.65;;
41885;SDS011;27567;43.084;25.616;2023-02-01T15:34:45;1.35;;;0.90;;
41885;SDS011;27567;43.084;25.616;2023-02-01T15:37:31;2.72;;;1.15;;
41885;SDS011;27567;43.084;25.616;2023-02-01T15:40:19;3.60;;;1.38;;
41885;SDS011;27567;43.084;25.616;2023-02-01T15:43:11;2.83;;;1.83;;
41885;SDS011;27567;43.084;25.616;2023-02-01T15:45:59;2.20;;;1.00;;
41885;SDS011;27567;43.084;25.616;2023-02-01T15:48:51;5.53;;;1.85;;
41885;SDS011;27567;43.084;25.616;2023-02-01T15:51:35;2.42;;;1.13;;
41885;SDS011;27567;43.084;25.616;2023-02-01T15:54:24;3.67;;;1.10;;
41885;SDS011;27567;43.084;25.616;2023-02-01T15:57:09;3.42;;;0.95;;
41885;SDS011;27567;43.084;25.616;2023-02-01T15:59:53;5.65;;;1.20;;
41885;SDS011;27567;43.084;25.616;2023-02-01T16:02:43;4.53;;;1.50;;
41885;SDS011;27567;43.084;25.616;2023-02-01T16:08:23;1.42;;;0.85;;
41885;SDS011;27567;43.084;25.616;2023-02-01T16:11:19;2.40;;;1.15;;
41885;SDS011;27567;43.084;25.616;2023-02-01T16:14:04;1.45;;;0.90;;
41885;SDS011;27567;43.084;25.616;2023-02-01T16:16:48;3.83;;;1.50;;
41885;SDS011;27567;43.084;25.616;2023-02-01T16:19:32;6.10;;;1.83;;
41885;SDS011;27567;43.084;25.616;2023-02-01T16:22:16;1.63;;;0.93;;
41885;SDS011;27567;43.084;25.616;2023-02-01T16:25:00;2.65;;;1.17;;
41885;SDS011;27567;43.084;25.616;2023-02-01T16:27:45;3.00;;;0.70;;
41885;SDS011;27567;43.084;25.616;2023-02-01T16:30:29;1.30;;;0.90;;
41885;SDS011;27567;43.084;25.616;2023-02-01T16:33:14;2.78;;;1.23;;
41885;SDS011;27567;43.084;25.616;2023-02-01T16:35:59;2.58;;;1.00;;
41885;SDS011;27567;43.084;25.616;2023-02-01T16:38:45;3.15;;;1.30;;
41885;SDS011;27567;43.084;25.616;2023-02-01T16:41:33;3.60;;;1.33;;
41885;SDS011;27567;43.084;25.616;2023-02-01T16:44:17;2.80;;;1.30;;
41885;SDS011;27567;43.084;25.616;2023-02-01T16:47:01;1.83;;;0.90;;
41885;SDS011;27567;43.084;25.616;2023-02-01T16:49:45;2.05;;;1.10;;
41885;SDS011;27567;43.084;25.616;2023-02-01T16:52:29;1.85;;;1.00;;
41885;SDS011;27567;43.084;25.616;2023-02-01T16:55:14;5.07;;;1.40;;
41885;SDS011;27567;43.084;25.616;2023-02-01T16:57:59;3.53;;;1.33;;
41885;SDS011;27567;43.084;25.616;2023-02-01T17:00:43;2.25;;;1.00;;
41885;SDS011;27567;43.084;25.616;2023-02-01T17:03:27;3.20;;;1.40;;
41885;SDS011;27567;43.084;25.616;2023-02-01T17:06:12;7.00;;;1.45;;
41885;SDS011;27567;43.084;25.616;2023-02-01T17:08:57;6.32;;;1.77;;
41885;SDS011;27567;43.084;25.616;2023-02-01T17:11:45;3.13;;;1.42;;
41885;SDS011;27567;43.084;25.616;2023-02-01T17:14:30;5.55;;;1.40;;
41885;SDS011;27567;43.084;25.616;2023-02-01T17:17:14;1.80;;;1.20;;
41885;SDS011;27567;43.084;25.616;2023-02-01T17:19:58;5.40;;;2.00;;
41885;SDS011;27567;43.084;25.616;2023-02-01T17:22:42;3.55;;;1.35;;
41885;SDS011;27567;43.084;25.616;2023-02-01T17:25:27;5.30;;;1.33;;
41885;SDS011;27567;43.084;25.616;2023-02-01T17:28:12;6.15;;;3.08;;
41885;SDS011;27567;43.084;25.616;2023-02-01T17:30:56;3.55;;;2.00;;
41885;SDS011;27567;43.084;25.616;2023-02-01T17:33:40;5.93;;;3.40;;
41885;SDS011;27567;43.084;25.616;2023-02-01T17:36:24;6.32;;;1.60;;
41885;SDS011;27567;43.084;25.616;2023-02-01T17:39:09;4.82;;;1.60;;
41885;SDS011;27567;43.084;25.616;2023-02-01T17:41:53;4.57;;;1.55;;
41885;SDS011;27567;43.084;25.616;2023-02-01T17:44:37;3.40;;;1.83;;
41885;SDS011;27567;43.084;25.616;2023-02-01T17:47:21;3.42;;;1.38;;
41885;SDS011;27567;43.084;25.616;2023-02-01T17:50:05;3.97;;;1.55;;
41885;SDS011;27567;43.084;25.616;2023-02-01T17:52:50;5.13;;;1.40;;
41885;SDS011;27567;43.084;25.616;2023-02-01T17:55:34;2.45;;;1.40;;
41885;SDS011;27567;43.084;25.616;2023-02-01T17:58:19;2.72;;;1.25;;
41885;SDS011;27567;43.084;25.616;2023-02-01T18:01:04;3.60;;;1.10;;
41885;SDS011;27567;43.084;25.616;2023-02-01T18:03:48;5.18;;;1.50;;
41885;SDS011;27567;43.084;25.616;2023-02-01T18:06:33;2.72;;;1.17;;
41885;SDS011;27567;43.084;25.616;2023-02-01T18:09:17;6.90;;;1.48;;
41885;SDS011;27567;43.084;25.616;2023-02-01T18:12:02;3.63;;;1.25;;
41885;SDS011;27567;43.084;25.616;2023-02-01T18:14:47;3.13;;;1.08;;
41885;SDS011;27567;43.084;25.616;2023-02-01T18:17:30;2.00;;;1.40;;
41885;SDS011;27567;43.084;25.616;2023-02-01T18:20:15;1.38;;;0.95;;
41885;SDS011;27567;43.084;25.616;2023-02-01T18:22:59;1.70;;;1.00;;
41885;SDS011;27567;43.084;25.616;2023-02-01T18:25:43;2.58;;;1.17;;
41885;SDS011;27567;43.084;25.616;2023-02-01T18:28:29;3.20;;;1.23;;
41885;SDS011;27567;43.084;25.616;2023-02-01T18:31:21;2.97;;;1.20;;
41885;SDS011;27567;43.084;25.616;2023-02-01T18:34:07;4.10;;;1.40;;
41885;SDS011;27567;43.084;25.616;2023-02-01T18:36:52;2.17;;;1.02;;
41885;SDS011;27567;43.084;25.616;2023-02-01T18:39:36;3.67;;;1.20;;
41885;SDS011;27567;43.084;25.616;2023-02-01T18:42:22;2.10;;;1.33;;
41885;SDS011;27567;43.084;25.616;2023-02-01T18:45:09;2.15;;;1.05;;
41885;SDS011;27567;43.084;25.616;2023-02-01T18:47:58;2.67;;;1.65;;
41885;SDS011;27567;43.084;25.616;2023-02-01T18:50:45;2.35;;;1.30;;
41885;SDS011;27567;43.084;25.616;2023-02-01T18:53:31;2.80;;;1.45;;
41885;SDS011;27567;43.084;25.616;2023-02-01T18:56:15;3.45;;;1.63;;
41885;SDS011;27567;43.084;25.616;2023-02-01T18:59:02;8.10;;;1.65;;
41885;SDS011;27567;43.084;25.616;2023-02-01T19:01:48;4.68;;;1.48;;